Time;durP1;ratioP1;P1;durP2;ratioP2;P2;SDS_P1;SDS_P2;PMS_P1;PMS_P2;Temp;Humidity;BMP_temperature;BMP_pressure;BME280_temperature;BME280_humidity;BME280_pressure;Samples;Min_cycle;Max_cycle;Signal;HPM_P1;HPM_P2
2022/05/05 00:01:05;;;;;;;;;13.50;11.25;;;;;12.75;67.05;101370.31;146633;602;45917;-68
2022/05/05 00:03:58;;;;;;;;;14.50;13.50;;;;;12.76;67.30;101385.09;146631;618;45012;-68
2022/05/05 00:06:50;;;;;;;;;14.25;13.00;;;;;12.78;67.31;101384.38;146630;583;45014;-69
2022/05/05 00:09:42;;;;;;;;;13.25;11.50;;;;;12.80;67.45;101387.94;146631;595;46012;-68
2022/05/05 00:15:44;;;;;;;;;11.25;11.25;;;;;12.87;67.37;101387.47;146625;625;45016;-65
2022/05/05 00:18:36;;;;;;;;;12.00;11.50;;;;;12.92;67.36;101388.59;146631;581;45010;-66
2022/05/05 00:21:29;;;;;;;;;16.75;13.00;;;;;12.97;67.19;101391.44;146626;625;46014;-66
2022/05/05 00:24:21;;;;;;;;;14.25;11.50;;;;;13.00;67.09;101398.53;146632;563;45917;-65
2022/05/05 00:27:28;;;;;;;;;15.25;14.25;;;;;13.02;66.73;101396.88;146627;664;45017;-65
2022/05/05 00:30:20;;;;;;;;;11.75;11.25;;;;;12.98;66.92;101395.81;146632;602;45029;-65
2022/05/05 00:33:12;;;;;;;;;12.25;12.00;;;;;12.95;67.39;101398.25;146630;572;45012;-65
2022/05/05 00:36:31;;;;;;;;;13.00;13.00;;;;;12.92;67.03;101400.72;146621;591;45020;-66
2022/05/05 00:39:25;;;;;;;;;12.50;10.50;;;;;12.90;67.20;101400.66;146611;584;46016;-67
2022/05/05 00:42:18;;;;;;;;;15.00;13.75;;;;;12.88;66.99;101396.16;146616;566;45021;-65
2022/05/05 00:45:11;;;;;;;;;13.75;12.00;;;;;12.90;67.87;101398.03;146613;573;46016;-65
2022/05/05 00:48:12;;;;;;;;;13.25;11.00;;;;;12.95;67.16;101406.06;146617;660;46014;-65
2022/05/05 00:51:04;;;;;;;;;12.25;12.25;;;;;12.99;67.43;101408.06;146613;576;46014;-64
2022/05/05 00:53:57;;;;;;;;;15.00;13.50;;;;;13.02;67.68;101404.69;146614;618;46010;-64
2022/05/05 00:56:50;;;;;;;;;14.75;13.25;;;;;13.03;67.39;101415.19;146611;591;46017;-65
2022/05/05 00:59:43;;;;;;;;;15.50;12.25;;;;;13.05;67.46;101416.19;146614;584;47014;-66
2022/05/05 01:02:37;;;;;;;;;14.75;13.50;;;;;13.08;67.75;101407.59;146614;584;46913;-66
2022/05/05 01:05:32;;;;;;;;;14.50;13.75;;;;;13.10;67.73;101398.19;146615;600;46021;-66
2022/05/05 01:08:24;;;;;;;;;14.50;13.00;;;;;13.09;67.48;101394.69;146611;604;46016;-66
2022/05/05 01:11:16;;;;;;;;;12.00;12.00;;;;;13.06;67.82;101391.91;146615;582;46010;-66
2022/05/05 01:14:08;;;;;;;;;13.25;13.25;;;;;13.01;67.63;101384.69;146610;575;47014;-67
2022/05/05 01:17:02;;;;;;;;;15.00;12.25;;;;;12.98;67.83;101388.00;146614;641;46020;-66
2022/05/05 01:19:54;;;;;;;;;14.25;11.50;;;;;12.00;67.96;101219.00;146612;618;46017;-68
2022/05/05 01:22:46;;;;;;;;;12.75;11.25;;;;;11.95;67.63;101213.53;146613;631;46020;-67
2022/05/05 01:28:56;;;;;;;;;12.75;12.50;;;;;12.96;67.04;101392.28;146618;575;45022;-69
2022/05/05 01:31:55;;;;;;;;;13.25;12.75;;;;;12.95;67.39;101401.75;146614;693;46016;-69
2022/05/05 01:34:52;;;;;;;;;12.00;10.25;;;;;11.97;67.76;101224.94;146614;577;46021;-67
2022/05/05 01:37:45;;;;;;;;;12.25;10.00;;;;;12.86;68.19;101392.56;146613;606;46016;-68
2022/05/05 01:40:39;;;;;;;;;14.00;11.00;;;;;12.80;68.19;101400.06;146610;648;45021;-69
2022/05/05 01:43:31;;;;;;;;;11.50;10.25;;;;;12.71;68.18;101397.88;146612;609;47012;-69
2022/05/05 01:46:24;;;;;;;;;11.25;11.25;;;;;12.66;68.15;101397.62;146608;582;47010;-70
2022/05/05 01:49:16;;;;;;;;;13.00;12.25;;;;;12.63;68.06;101397.47;146609;710;45044;-69
2022/05/05 01:52:12;;;;;;;;;14.00;9.50;;;;;12.61;68.26;101396.47;146604;597;46020;-69
2022/05/05 01:55:04;;;;;;;;;15.75;12.50;;;;;12.55;68.57;101392.66;146605;613;46016;-69
2022/05/05 01:58:40;;;;;;;;;10.25;10.25;;;;;12.45;67.97;101391.28;146609;590;46010;-70
2022/05/05 02:01:33;;;;;;;;;9.00;9.00;;;;;12.34;69.11;101390.69;146611;626;45016;-70
2022/05/05 02:04:25;;;;;;;;;13.00;11.00;;;;;12.24;69.04;101386.69;146612;613;46010;-70
2022/05/05 02:07:17;;;;;;;;;12.00;11.00;;;;;12.18;69.14;101385.44;146604;573;46014;-68
2022/05/05 02:10:11;;;;;;;;;12.50;12.25;;;;;12.15;69.35;101390.47;146613;610;47011;-67
2022/05/05 02:13:03;;;;;;;;;13.00;11.25;;;;;12.16;69.07;101395.78;146605;586;47012;-67
2022/05/05 02:15:55;;;;;;;;;12.50;11.25;;;;;12.13;69.55;101403.41;146609;553;46010;-68
2022/05/05 02:18:48;;;;;;;;;13.00;10.25;;;;;12.13;69.65;101402.50;146606;651;46013;-68
2022/05/05 02:21:39;;;;;;;;;12.00;12.00;;;;;12.11;69.28;101398.91;146611;598;45020;-70
2022/05/05 02:24:32;;;;;;;;;12.00;10.75;;;;;12.06;70.05;101398.69;146606;575;46015;-68
2022/05/05 02:27:24;;;;;;;;;10.25;10.25;;;;;12.02;69.52;101407.09;146612;648;46020;-67
2022/05/05 02:30:19;;;;;;;;;12.50;11.50;;;;;11.99;69.56;101410.44;146606;614;46016;-68
2022/05/05 02:33:17;;;;;;;;;13.00;11.75;;;;;11.97;69.91;101404.25;146611;584;46021;-70
2022/05/05 02:39:33;;;;;;;;;11.75;10.75;;;;;11.92;69.44;101405.69;146607;591;47010;-68
2022/05/05 02:42:26;;;;;;;;;14.50;14.25;;;;;11.97;69.94;101412.06;146606;616;46016;-68
2022/05/05 02:45:18;;;;;;;;;12.75;11.25;;;;;12.04;69.59;101412.41;146609;577;46020;-68
2022/05/05 02:48:35;;;;;;;;;15.25;13.25;;;;;12.08;69.02;101406.53;146600;683;47915;-68
2022/05/05 02:51:28;;;;;;;;;15.50;12.75;;;;;12.11;69.40;101411.91;146605;566;46029;-69
2022/05/05 02:57:30;;;;;;;;;14.25;11.75;;;;;12.13;69.00;101407.72;146609;642;46020;-69
2022/05/05 03:00:22;;;;;;;;;14.50;13.50;;;;;12.14;69.22;101412.97;146607;611;46014;-70
2022/05/05 03:03:14;;;;;;;;;20.00;17.75;;;;;12.11;69.50;101424.91;146607;619;46010;-69
2022/05/05 03:06:15;;;;;;;;;16.50;15.75;;;;;12.07;69.39;101434.25;146607;634;46016;-69
2022/05/05 03:09:08;;;;;;;;;15.25;14.75;;;;;12.04;69.95;101425.38;146610;625;46010;-71
2022/05/05 03:12:08;;;;;;;;;14.75;14.00;;;;;12.01;71.11;101431.31;146610;614;45017;-69
2022/05/05 03:15:00;;;;;;;;;12.25;11.25;;;;;11.95;70.90;101434.44;146609;572;46010;-70
2022/05/05 03:17:53;;;;;;;;;14.50;13.75;;;;;11.89;71.38;101431.50;146606;577;46016;-71
2022/05/05 03:20:45;;;;;;;;;14.50;12.00;;;;;11.83;71.42;101430.22;146607;572;46010;-69
2022/05/05 03:23:38;;;;;;;;;15.50;12.50;;;;;11.76;70.67;101432.47;146605;606;46017;-70
2022/05/05 03:26:29;;;;;;;;;13.75;11.00;;;;;11.75;71.07;101433.28;146607;569;46010;-70
2022/05/05 03:29:22;;;;;;;;;13.00;10.50;;;;;11.74;70.81;101430.59;146608;599;46016;-70
2022/05/05 03:32:15;;;;;;;;;14.00;13.50;;;;;11.77;70.67;101420.37;146607;612;46021;-71
2022/05/05 03:35:08;;;;;;;;;11.50;11.50;;;;;11.82;70.84;101436.25;146607;571;46012;-74
2022/05/05 03:38:00;;;;;;;;;11.50;10.75;;;;;10.92;70.45;101295.16;146612;571;46010;-73
2022/05/05 03:40:52;;;;;;;;;13.00;12.50;;;;;11.91;70.18;101435.09;146606;570;46016;-71
2022/05/05 03:43:44;;;;;;;;;17.25;14.25;;;;;12.01;70.34;101445.19;146609;590;46010;-73
2022/05/05 03:46:37;;;;;;;;;12.25;11.25;;;;;12.10;70.12;101443.94;146608;586;46014;-72
2022/05/05 03:49:29;;;;;;;;;13.50;13.00;;;;;12.14;69.93;101443.28;146608;580;46020;-67
2022/05/05 03:52:21;;;;;;;;;15.25;13.00;;;;;12.20;69.79;101448.84;146609;618;46013;-67
2022/05/05 03:55:13;;;;;;;;;13.25;12.00;;;;;12.21;69.24;101448.00;146609;637;46010;-67
2022/05/05 03:58:05;;;;;;;;;15.75;14.25;;;;;12.18;69.89;101456.56;146607;627;46016;-68
2022/05/05 04:00:57;;;;;;;;;11.75;10.75;;;;;12.16;69.40;101454.69;146614;566;46010;-68
2022/05/05 04:03:50;;;;;;;;;13.25;12.50;;;;;12.15;70.06;101460.66;146607;631;46014;-68
2022/05/05 04:06:42;;;;;;;;;12.75;11.75;;;;;12.15;69.84;101453.78;146611;580;46020;-67
2022/05/05 04:09:34;;;;;;;;;14.00;12.75;;;;;12.20;69.58;101461.84;146606;593;46016;-68
2022/05/05 04:12:26;;;;;;;;;15.50;14.00;;;;;12.17;71.41;101454.75;146610;667;46020;-69
2022/05/05 04:15:18;;;;;;;;;16.00;14.25;;;;;12.20;70.63;101462.72;146606;614;46032;-68
2022/05/05 04:18:11;;;;;;;;;15.00;12.00;;;;;12.20;70.37;101467.03;146608;571;46010;-68
2022/05/05 04:21:03;;;;;;;;;11.00;10.50;;;;;12.27;70.43;101463.97;146603;580;46016;-68
2022/05/05 04:23:54;;;;;;;;;15.00;14.25;;;;;12.37;70.55;101470.59;146608;674;45021;-72
2022/05/05 04:26:48;;;;;;;;;13.25;11.50;;;;;12.45;70.38;101467.59;146607;581;46012;-71
2022/05/05 04:29:40;;;;;;;;;16.50;13.75;;;;;12.52;70.27;101463.63;146609;658;47010;-72
2022/05/05 04:32:34;;;;;;;;;13.25;12.00;;;;;12.64;70.33;101468.59;146607;604;46012;-72
2022/05/05 04:35:26;;;;;;;;;15.75;15.75;;;;;12.79;70.39;101478.97;146609;615;46010;-67
2022/05/05 04:38:18;;;;;;;;;18.00;16.00;;;;;13.02;70.29;101486.31;146608;587;46012;-67
2022/05/05 04:41:10;;;;;;;;;15.75;15.00;;;;;13.26;70.12;101478.91;146608;602;46020;-68
2022/05/05 04:44:03;;;;;;;;;18.00;17.25;;;;;13.54;68.95;101480.34;146606;653;46017;-69
2022/05/05 04:46:55;;;;;;;;;20.50;16.25;;;;;13.77;68.03;101481.50;146607;582;46020;-68
2022/05/05 04:49:47;;;;;;;;;19.75;17.25;;;;;13.98;68.13;101484.28;146605;598;46025;-68
2022/05/05 04:52:39;;;;;;;;;21.00;17.75;;;;;14.16;67.54;101485.19;146606;592;46020;-70
2022/05/05 04:55:32;;;;;;;;;20.25;18.00;;;;;14.37;67.07;101487.97;146607;587;45016;-71
2022/05/05 04:58:23;;;;;;;;;18.50;17.00;;;;;14.61;66.91;101489.97;146607;570;46020;-70
2022/05/05 05:01:16;;;;;;;;;16.00;16.00;;;;;14.78;66.58;101482.09;146606;572;46034;-71
2022/05/05 05:04:08;;;;;;;;;15.00;14.00;;;;;14.98;66.48;101489.94;146608;681;47010;-70
2022/05/05 05:07:00;;;;;;;;;16.75;15.00;;;;;15.08;66.55;101492.16;146604;570;46016;-70
2022/05/05 05:09:52;;;;;;;;;16.75;15.75;;;;;15.17;66.34;101505.66;146607;661;46020;-70
2022/05/05 05:12:44;;;;;;;;;19.00;17.25;;;;;15.38;66.82;101486.50;146605;582;46016;-71
2022/05/05 05:15:36;;;;;;;;;14.75;14.25;;;;;15.63;66.04;101493.69;146609;583;46021;-69
2022/05/05 05:18:29;;;;;;;;;17.50;14.50;;;;;15.88;65.73;101487.81;146607;580;46014;-69
2022/05/05 05:21:20;;;;;;;;;13.50;13.50;;;;;16.17;65.10;101482.06;146611;671;45020;-69
2022/05/05 05:24:13;;;;;;;;;17.25;14.00;;;;;16.44;63.77;101481.37;146607;564;46017;-69
2022/05/05 05:27:06;;;;;;;;;14.00;12.75;;;;;16.63;63.58;101483.91;146612;632;45020;-68
2022/05/05 05:29:58;;;;;;;;;16.50;15.50;;;;;16.84;63.49;101486.44;146605;564;46017;-67
2022/05/05 05:32:50;;;;;;;;;18.50;16.00;;;;;17.02;62.60;101491.50;146611;684;46010;-67
2022/05/05 05:35:44;;;;;;;;;20.00;20.00;;;;;17.22;62.02;101492.22;146605;609;46026;-69
2022/05/05 05:38:36;;;;;;;;;27.25;23.25;;;;;17.38;60.69;101491.03;146608;695;46020;-68
2022/05/05 05:41:29;;;;;;;;;24.50;21.00;;;;;17.50;59.65;101499.34;146606;582;45016;-67
2022/05/05 05:44:21;;;;;;;;;27.50;25.00;;;;;17.55;59.74;101499.50;146605;621;46011;-67
2022/05/05 05:47:13;;;;;;;;;29.00;24.25;;;;;17.57;59.22;101492.59;146607;582;46915;-68
2022/05/05 05:50:05;;;;;;;;;31.00;28.75;;;;;17.65;59.61;101496.38;146608;563;46010;-68
2022/05/05 05:52:57;;;;;;;;;27.50;24.00;;;;;17.76;59.36;101509.88;146603;673;46017;-69
2022/05/05 05:55:49;;;;;;;;;29.50;27.50;;;;;17.86;59.43;101508.47;146607;569;46020;-67
2022/05/05 05:58:42;;;;;;;;;26.75;26.50;;;;;17.95;59.39;101511.41;146605;594;45017;-68
2022/05/05 06:04:44;;;;;;;;;34.25;29.25;;;;;18.05;59.01;101516.13;146605;602;46014;-69
2022/05/05 06:07:36;;;;;;;;;33.75;29.50;;;;;18.12;58.72;101522.47;146610;585;46010;-69
2022/05/05 06:10:29;;;;;;;;;32.25;30.00;;;;;18.15;59.04;101525.19;146605;579;46016;-70
2022/05/05 06:13:21;;;;;;;;;31.75;29.25;;;;;18.21;58.19;101528.03;146606;618;46010;-66
2022/05/05 06:16:13;;;;;;;;;35.25;28.75;;;;;18.28;58.65;101524.75;146605;578;46016;-68
2022/05/05 06:19:05;;;;;;;;;31.50;27.50;;;;;18.36;58.08;101522.38;146607;593;46010;-68
2022/05/05 06:21:57;;;;;;;;;25.00;23.75;;;;;18.41;57.96;101526.94;146606;647;46016;-70
2022/05/05 06:24:50;;;;;;;;;25.75;21.50;;;;;18.51;58.78;101535.13;146607;575;46020;-69
2022/05/05 06:27:42;;;;;;;;;28.25;27.00;;;;;18.65;58.17;101529.44;146604;594;46016;-67
2022/05/05 06:30:35;;;;;;;;;27.50;22.75;;;;;18.83;57.13;101526.53;146609;624;46010;-66
2022/05/05 06:33:27;;;;;;;;;21.00;19.75;;;;;18.98;57.76;101531.34;146604;581;46016;-67
2022/05/05 06:36:23;;;;;;;;;19.25;18.25;;;;;19.11;58.54;101532.59;146605;574;46020;-66
2022/05/05 06:39:15;;;;;;;;;22.25;20.00;;;;;19.24;57.29;101532.09;146607;633;46016;-67
2022/05/05 06:42:08;;;;;;;;;21.00;19.25;;;;;19.39;57.68;101535.16;146607;633;46020;-67
2022/05/05 06:45:01;;;;;;;;;23.25;21.50;;;;;19.52;57.62;101525.00;146606;576;46017;-70
2022/05/05 06:47:54;;;;;;;;;17.50;16.50;;;;;19.66;58.52;101526.31;146606;569;46020;-67
2022/05/05 06:50:46;;;;;;;;;23.25;20.50;;;;;19.82;57.31;101532.84;146605;564;46915;-68
2022/05/05 06:53:38;;;;;;;;;20.75;17.75;;;;;19.92;57.42;101532.25;146603;581;47020;-67
2022/05/05 06:56:30;;;;;;;;;19.25;16.50;;;;;20.02;57.49;101541.25;146605;600;46915;-68
2022/05/05 06:59:23;;;;;;;;;15.00;13.25;;;;;19.98;58.14;101536.78;146607;608;46021;-66
2022/05/05 07:02:15;;;;;;;;;19.50;16.50;;;;;20.01;57.96;101543.00;146605;655;46016;-68
2022/05/05 07:05:27;;;;;;;;;17.25;14.25;;;;;20.08;57.74;101533.53;146608;585;46021;-65
2022/05/05 07:08:19;;;;;;;;;16.00;15.75;;;;;20.19;57.20;101529.44;146608;592;46016;-66
2022/05/05 07:11:11;;;;;;;;;15.50;15.50;;;;;20.31;57.21;101539.34;146608;614;46010;-65
2022/05/05 07:14:03;;;;;;;;;17.00;15.50;;;;;20.40;57.19;101536.94;146609;579;46012;-66
2022/05/05 07:17:08;;;;;;;;;18.50;17.50;;;;;20.52;57.43;101541.66;146607;575;46010;-65
2022/05/05 07:20:00;;;;;;;;;17.25;15.25;;;;;20.56;56.53;101543.53;146605;571;46012;-66
2022/05/05 07:22:52;;;;;;;;;17.25;16.00;;;;;20.62;57.31;101543.62;146609;577;46010;-66
2022/05/05 07:25:47;;;;;;;;;16.00;14.50;;;;;20.67;56.75;101536.72;146605;641;46014;-67
2022/05/05 07:28:39;;;;;;;;;14.00;13.75;;;;;20.74;56.52;101538.63;146610;631;46021;-65
2022/05/05 07:31:31;;;;;;;;;13.00;12.00;;;;;20.81;55.66;101544.06;146605;665;46016;-66
2022/05/05 07:34:23;;;;;;;;;14.25;11.00;;;;;20.94;56.39;101556.66;146610;611;45020;-68
2022/05/05 07:37:16;;;;;;;;;14.25;12.75;;;;;21.11;56.40;101557.03;146605;577;46915;-67
2022/05/05 07:40:09;;;;;;;;;15.25;13.75;;;;;21.33;53.96;101550.44;146626;635;46010;-68
2022/05/05 07:43:02;;;;;;;;;18.00;15.25;;;;;20.60;55.58;101413.63;146626;577;45017;-69
2022/05/05 07:45:56;;;;;;;;;13.50;12.50;;;;;21.56;55.18;101564.16;146631;628;45021;-69
2022/05/05 07:49:10;;;;;;;;;13.00;12.50;;;;;21.56;54.72;101550.97;146628;692;45016;-69
2022/05/05 07:52:01;;;;;;;;;13.00;12.75;;;;;21.50;54.02;101559.63;146633;588;45014;-68
2022/05/05 07:54:54;;;;;;;;;15.00;13.75;;;;;21.33;54.30;101567.16;146624;595;45914;-68
2022/05/05 07:57:47;;;;;;;;;13.00;12.00;;;;;21.26;54.74;101570.53;146633;580;45011;-68
2022/05/05 08:00:39;;;;;;;;;16.75;14.75;;;;;21.22;55.34;101566.06;146628;717;45016;-68
2022/05/05 08:03:32;;;;;;;;;15.00;11.25;;;;;21.27;55.69;101571.41;146633;659;45020;-68
2022/05/05 08:06:24;;;;;;;;;18.50;13.50;;;;;21.39;55.43;101577.00;146629;621;45025;-68
2022/05/05 08:09:17;;;;;;;;;12.00;11.75;;;;;21.51;54.34;101577.25;146629;564;45028;-69
2022/05/05 08:12:09;;;;;;;;;14.00;11.75;;;;;21.52;52.15;101573.72;146629;613;45035;-69
2022/05/05 08:15:02;;;;;;;;;15.00;13.25;;;;;21.50;52.66;101582.50;146630;645;45020;-68
2022/05/05 08:17:54;;;;;;;;;13.50;12.25;;;;;21.32;51.42;101581.22;146630;682;46012;-68
2022/05/05 08:20:46;;;;;;;;;14.50;14.25;;;;;21.33;54.08;101588.25;146629;573;45021;-68
2022/05/05 08:23:39;;;;;;;;;14.00;14.00;;;;;21.43;51.61;101582.37;146627;613;45016;-68
2022/05/05 08:29:43;;;;;;;;;19.25;15.25;;;;;21.65;52.94;101578.41;146629;656;45913;-68
2022/05/05 08:32:50;;;;;;;;;16.25;14.75;;;;;21.62;52.85;101580.06;146629;569;46010;-69
2022/05/05 08:36:21;;;;;;;;;17.00;15.25;;;;;21.57;54.33;101582.63;146629;608;45017;-68
2022/05/05 08:39:13;;;;;;;;;20.25;14.00;;;;;21.54;53.45;101572.03;146614;675;46020;-68
2022/05/05 08:42:08;;;;;;;;;13.25;11.75;;;;;21.51;52.53;101582.50;146607;566;46017;-68
2022/05/05 08:45:01;;;;;;;;;12.50;11.25;;;;;21.50;47.28;101586.03;146607;608;46020;-70
2022/05/05 08:47:57;;;;;;;;;13.25;11.50;;;;;21.51;51.36;101581.63;146609;563;46014;-68
2022/05/05 08:50:55;;;;;;;;;15.75;14.00;;;;;21.54;51.38;101582.56;146608;618;47010;-66
2022/05/05 08:53:52;;;;;;;;;9.50;8.75;;;;;21.63;47.99;101593.31;146610;685;46014;-66
2022/05/05 08:56:45;;;;;;;;;14.75;13.00;;;;;21.76;50.12;101583.00;146612;572;46011;-67
2022/05/05 08:59:36;;;;;;;;;11.50;8.00;;;;;21.81;46.70;101584.88;146609;572;47012;-67
2022/05/05 09:05:52;;;;;;;;;13.50;13.00;;;;;22.06;48.48;101585.31;146607;574;46017;-67
2022/05/05 09:08:48;;;;;;;;;12.00;9.67;;;;;22.18;47.85;101588.22;146609;644;47010;-67
2022/05/05 09:11:40;;;;;;;;;10.75;10.75;;;;;22.26;47.33;101575.13;146607;601;46016;-68
2022/05/05 09:14:41;;;;;;;;;12.00;11.50;;;;;22.28;48.39;101569.00;146609;579;46010;-66
2022/05/05 09:17:35;;;;;;;;;13.00;11.75;;;;;22.44;47.94;101569.25;146609;566;45915;-67
2022/05/05 09:20:39;;;;;;;;;11.75;9.75;;;;;22.77;49.00;101556.56;146612;564;46010;-67
2022/05/05 09:26:59;;;;;;;;;9.75;9.75;;;;;22.39;43.89;101462.59;146610;595;46015;-67
2022/05/05 09:30:18;;;;;;;;;12.33;12.33;;;;;22.21;48.05;101426.22;146608;575;46012;-67
2022/05/05 09:33:11;;;;;;;;;9.50;9.50;;;;;22.76;45.75;101561.81;146612;621;46010;-67
2022/05/05 09:36:13;;;;;;;;;12.00;11.00;;;;;22.67;45.76;101561.69;146605;669;46016;-66
2022/05/05 09:39:10;;;;;;;;;10.67;8.33;;;;;22.62;43.93;101564.25;146609;584;46020;-67
2022/05/05 09:42:03;;;;;;;;;11.75;10.50;;;;;22.74;48.30;101547.66;146609;564;47013;-68
2022/05/05 09:44:56;;;;;;;;;14.25;11.25;;;;;23.02;47.12;101554.25;146611;689;46010;-68
2022/05/05 09:47:50;;;;;;;;;9.75;9.75;;;;;23.32;47.54;101552.88;146611;572;47012;-67
2022/05/05 09:50:42;;;;;;;;;6.33;6.00;;;;;23.55;47.30;101540.81;146616;570;45031;-67
2022/05/05 10:04:05;;;;;;;;;10.67;9.67;;;;;23.97;42.50;101540.38;146616;656;46021;-67
2022/05/05 10:06:59;;;;;;;;;8.00;8.00;;;;;23.67;41.56;101540.91;146612;576;47014;-67
2022/05/05 10:09:56;;;;;;;;;9.50;9.00;;;;;23.52;45.21;101531.09;146608;573;46020;-67
2022/05/05 10:12:52;;;;;;;;;6.00;6.00;;;;;23.13;42.29;101547.38;146615;569;46013;-66
2022/05/05 10:16:24;;;;;;;;;10.33;9.67;;;;;23.14;44.15;101532.37;146611;601;47010;-66
2022/05/05 10:19:16;;;;;;;;;6.67;6.67;;;;;23.17;41.93;101530.66;146613;599;46017;-68
2022/05/05 10:22:16;;;;;;;;;9.33;7.67;;;;;23.31;46.02;101536.13;146615;577;46010;-66
2022/05/05 10:25:21;;;;;;;;;9.00;8.67;;;;;23.55;46.03;101535.53;146613;575;45029;-68
2022/05/05 10:28:42;;;;;;;;;12.75;11.50;;;;;22.83;46.38;101373.28;146609;566;46020;-67
2022/05/05 10:31:54;;;;;;;;;9.25;9.25;;;;;23.03;43.17;101379.72;146608;683;46012;-66
2022/05/05 10:34:48;;;;;;;;;9.67;8.33;;;;;24.08;41.63;101531.63;146609;573;46020;-67
2022/05/05 10:37:41;;;;;;;;;11.00;10.33;;;;;24.04;39.14;101537.78;146609;575;46012;-67
2022/05/05 10:40:48;;;;;;;;;10.00;10.00;;;;;24.08;44.01;101531.63;146611;616;47010;-66
2022/05/05 10:43:41;;;;;;;;;8.00;8.00;;;;;24.19;41.28;101544.09;146611;601;46016;-67
2022/05/05 10:47:03;;;;;;;;;10.00;9.00;;;;;24.41;45.33;101541.63;146618;579;46010;-68
2022/05/05 10:49:58;;;;;;;;;6.67;6.67;;;;;24.61;44.20;101548.00;146612;578;46017;-67
2022/05/05 10:53:02;;;;;;;;;8.00;7.00;;;;;24.75;44.83;101548.06;146610;565;46010;-67
2022/05/05 10:55:54;;;;;;;;;10.67;9.00;;;;;24.85;42.86;101554.31;146607;580;46915;-67
2022/05/05 10:59:13;;;;;;;;;9.33;7.67;;;;;24.91;44.69;101554.34;146607;582;47014;-67
2022/05/05 11:02:06;;;;;;;;;9.67;9.67;;;;;24.98;44.29;101556.13;146611;631;46026;-67
2022/05/05 11:05:28;;;;;;;;;10.67;9.67;;;;;24.26;46.26;101406.34;146612;651;46011;-67
2022/05/05 11:08:42;;;;;;;;;9.67;9.67;;;;;24.40;44.56;101407.31;146608;570;46016;-66
2022/05/05 11:11:43;;;;;;;;;9.33;8.33;;;;;25.36;44.07;101563.44;146611;613;46022;-68
2022/05/05 11:21:35;;;;;;;;;8.67;8.67;;;;;25.54;43.19;101546.66;146608;589;46012;-66
2022/05/05 11:24:31;;;;;;;;;9.67;9.67;;;;;25.56;44.24;101551.09;146611;583;46010;-68
2022/05/05 11:27:26;;;;;;;;;12.00;10.00;;;;;25.56;42.26;101550.22;146606;571;47013;-66
2022/05/05 11:30:18;;;;;;;;;9.67;9.67;;;;;25.52;41.99;101548.44;146610;584;46020;-67
2022/05/05 11:33:10;;;;;;;;;9.33;9.00;;;;;25.39;42.51;101539.56;146609;615;46025;-67
2022/05/05 11:36:04;;;;;;;;;11.67;8.67;;;;;25.16;40.62;101534.16;146610;611;46021;-68
2022/05/05 11:38:44;;;;;;;;;10.00;9.67;;;;;24.83;42.02;101537.53;146611;664;46012;-67
2022/05/05 11:41:36;;;;;;;;;6.67;6.33;;;;;24.54;42.36;101538.19;146611;564;46011;-66
2022/05/05 11:44:29;;;;;;;;;9.00;8.00;;;;;24.45;43.87;101538.13;146607;580;46016;-67
2022/05/05 11:47:26;;;;;;;;;10.67;9.33;;;;;24.40;41.20;101535.44;146608;573;47022;-66
2022/05/05 11:50:18;;;;;;;;;13.00;10.67;;;;;24.34;41.46;101530.09;146609;572;46016;-66
2022/05/05 11:53:20;;;;;;;;;11.75;10.00;;;;;24.43;44.05;101530.19;146607;571;46020;-67
2022/05/05 11:56:17;;;;;;;;;8.75;8.25;;;;;24.63;43.64;101537.38;146610;660;46012;-68
2022/05/05 12:02:34;;;;;;;;;9.33;9.33;;;;;24.84;40.63;101510.09;146612;606;46016;-66
2022/05/05 12:05:27;;;;;;;;;8.33;7.67;;;;;24.78;40.88;101516.25;146615;604;46010;-67
2022/05/05 12:08:20;;;;;;;;;7.25;7.00;;;;;24.75;38.10;101513.59;146611;570;46915;-68
2022/05/05 12:11:12;;;;;;;;;8.33;8.00;;;;;24.80;42.23;101510.97;146615;576;46021;-68
2022/05/05 12:14:09;;;;;;;;;10.33;8.00;;;;;24.83;43.64;101522.47;146610;656;46014;-67
2022/05/05 12:17:04;;;;;;;;;9.75;8.00;;;;;24.81;40.45;101512.75;146614;623;46030;-66
2022/05/05 12:20:07;;;;;;;;;8.00;8.00;;;;;24.78;40.55;101492.38;146615;569;46020;-67
2022/05/05 12:23:04;;;;;;;;;11.00;9.50;;;;;24.74;41.97;101490.59;146607;626;47014;-66
2022/05/05 12:25:56;;;;;;;;;10.75;8.50;;;;;24.70;42.31;101493.22;146611;679;46012;-66
2022/05/05 12:28:56;;;;;;;;;11.75;10.00;;;;;24.69;40.96;101497.63;146612;566;46010;-67
2022/05/05 12:31:55;;;;;;;;;9.50;9.00;;;;;24.71;43.02;101485.28;146610;669;45017;-67
2022/05/05 12:34:48;;;;;;;;;7.00;7.00;;;;;24.78;40.88;101487.09;146616;564;46010;-67
2022/05/05 12:37:41;;;;;;;;;10.33;9.00;;;;;24.76;41.68;101491.47;146607;636;47014;-67
2022/05/05 12:40:33;;;;;;;;;9.67;8.67;;;;;24.66;41.22;101481.72;146610;579;46021;-66
2022/05/05 12:43:27;;;;;;;;;8.00;8.00;;;;;24.63;40.11;101479.03;146607;590;46014;-66
2022/05/05 12:46:20;;;;;;;;;7.67;7.00;;;;;24.66;41.30;101466.69;146610;599;46020;-66
2022/05/05 12:49:12;;;;;;;;;9.33;8.00;;;;;24.73;40.96;101466.72;146611;642;46017;-67
2022/05/05 12:52:04;;;;;;;;;6.33;6.33;;;;;24.79;40.59;101470.28;146618;585;45020;-67
2022/05/05 13:01:30;;;;;;;;;9.00;9.00;;;;;24.53;42.61;101462.19;146613;564;46016;-66
2022/05/05 13:04:23;;;;;;;;;8.00;7.25;;;;;24.49;42.21;101454.25;146615;670;46021;-66
2022/05/05 13:07:15;;;;;;;;;8.00;7.00;;;;;24.47;41.30;101456.87;146616;574;46016;-67
2022/05/05 13:10:08;;;;;;;;;8.50;8.50;;;;;24.49;42.78;101456.87;146615;681;46010;-66
2022/05/05 13:13:00;;;;;;;;;9.33;8.00;;;;;24.45;42.42;101445.34;146613;654;46024;-68
2022/05/05 13:15:53;;;;;;;;;9.00;7.33;;;;;24.41;41.86;101430.28;146615;582;46029;-67
2022/05/05 13:18:46;;;;;;;;;8.00;7.67;;;;;24.44;41.90;101430.34;146614;592;47014;-67
2022/05/05 13:21:39;;;;;;;;;7.00;6.00;;;;;24.41;39.63;101431.19;146613;565;46020;-66
2022/05/05 13:24:31;;;;;;;;;8.00;8.00;;;;;24.05;38.79;101434.50;146612;576;45017;-66
2022/05/05 13:27:24;;;;;;;;;5.00;5.00;;;;;23.86;40.86;101430.81;146612;569;46021;-67
2022/05/05 13:30:16;;;;;;;;;8.67;8.33;;;;;23.68;39.73;101426.22;146613;584;46016;-67
2022/05/05 13:33:08;;;;;;;;;7.67;7.67;;;;;23.65;42.13;101422.66;146617;582;46020;-67
2022/05/05 13:36:00;;;;;;;;;8.67;8.67;;;;;23.62;43.38;101420.00;146609;583;46016;-67
2022/05/05 13:38:53;;;;;;;;;7.67;7.67;;;;;23.57;43.35;101416.41;146612;603;46010;-66
2022/05/05 13:41:45;;;;;;;;;9.75;8.75;;;;;23.51;44.21;101422.53;146611;610;46012;-67
2022/05/05 13:44:37;;;;;;;;;9.75;7.75;;;;;23.47;44.88;101432.19;146612;607;46010;-67
2022/05/05 13:47:30;;;;;;;;;8.00;8.00;;;;;23.42;45.01;101430.37;146610;600;47014;-66
2022/05/05 13:50:22;;;;;;;;;14.25;13.50;;;;;23.46;45.60;101427.78;146610;579;46010;-67
2022/05/05 13:53:14;;;;;;;;;11.25;10.75;;;;;23.59;46.97;101417.31;146606;581;46016;-66
2022/05/05 13:56:06;;;;;;;;;10.25;9.75;;;;;23.67;45.04;101412.94;146610;673;47010;-66
2022/05/05 13:58:58;;;;;;;;;8.33;8.33;;;;;23.69;46.77;101414.78;146614;573;46034;-67
2022/05/05 14:01:50;;;;;;;;;8.67;8.67;;;;;23.61;46.63;101407.59;146614;592;46020;-66
2022/05/05 14:04:43;;;;;;;;;8.75;8.75;;;;;23.55;45.37;101440.22;146608;644;46012;-68
2022/05/05 14:13:54;;;;;;;;;8.00;8.00;;;;;23.55;45.20;101421.69;146614;707;46020;-67
2022/05/05 14:16:47;;;;;;;;;9.00;7.67;;;;;23.64;45.56;101424.41;146613;622;46015;-68
2022/05/05 14:19:40;;;;;;;;;10.75;7.75;;;;;23.67;46.02;101423.53;146617;578;46010;-67